createdAt,value
2022-11-29T00:01:02.982Z,2.86
2022-11-29T00:03:31.130Z,2.86
2022-11-29T00:06:04.559Z,2.92
2022-11-29T00:08:33.664Z,2.93
2022-11-29T00:11:05.278Z,2.85
2022-11-29T00:13:32.882Z,2.84
2022-11-29T00:16:04.133Z,2.85
2022-11-29T00:18:31.804Z,2.86
2022-11-29T00:20:59.468Z,2.91
2022-11-29T00:23:27.138Z,2.87
2022-11-29T00:25:56.091Z,2.87
2022-11-29T00:28:23.739Z,2.89
2022-11-29T00:30:51.360Z,2.90
2022-11-29T00:33:19.009Z,2.85
2022-11-29T00:35:46.631Z,2.89
2022-11-29T00:38:14.262Z,2.81
2022-11-29T00:40:41.893Z,2.84
2022-11-29T00:43:10.839Z,2.87
2022-11-29T00:45:38.527Z,2.85
2022-11-29T00:48:06.436Z,2.89
2022-11-29T00:50:34.079Z,2.89
2022-11-29T00:53:01.727Z,2.83
2022-11-29T00:55:29.384Z,2.82
2022-11-29T00:57:57.039Z,2.84
2022-11-29T01:00:26.071Z,2.91
2022-11-29T01:02:53.781Z,2.90
2022-11-29T01:05:21.432Z,2.92
2022-11-29T01:07:49.204Z,2.89
2022-11-29T01:10:17.008Z,2.86
2022-11-29T01:12:44.654Z,2.86
2022-11-29T01:15:12.637Z,2.90
2022-11-29T01:17:41.950Z,2.90
2022-11-29T01:20:12.711Z,2.91
2022-11-29T01:22:40.920Z,2.92
2022-11-29T01:25:10.312Z,2.87
2022-11-29T01:27:37.962Z,2.83
2022-11-29T01:30:06.673Z,2.83
2022-11-29T01:32:34.306Z,2.81
2022-11-29T01:35:03.351Z,2.83
2022-11-29T01:37:31.016Z,2.96
2022-11-29T01:39:58.682Z,2.89
2022-11-29T01:42:26.354Z,2.84
2022-11-29T01:45:20.926Z,2.83
2022-11-29T01:47:50.176Z,2.82
2022-11-29T01:50:19.888Z,2.87
2022-11-29T01:52:48.401Z,2.90
2022-11-29T01:55:17.178Z,2.88
2022-11-29T01:57:45.623Z,2.84
2022-11-29T02:00:16.487Z,2.84
2022-11-29T02:02:48.110Z,2.84
2022-11-29T02:05:19.765Z,2.82
2022-11-29T02:07:52.149Z,2.89
2022-11-29T02:10:21.189Z,2.96
2022-11-29T02:13:00.371Z,2.87
2022-11-29T02:15:43.586Z,2.85
2022-11-29T02:18:14.640Z,2.86
2022-11-29T02:21:18.134Z,2.91
2022-11-29T02:24:30.339Z,2.87
2022-11-29T02:27:17.288Z,2.87
2022-11-29T02:30:06.091Z,2.89
2022-11-29T02:33:03.768Z,2.85
2022-11-29T02:36:05.763Z,2.95
2022-11-29T02:38:49.350Z,2.91
2022-11-29T02:41:31.159Z,2.91
2022-11-29T02:44:35.076Z,2.93
2022-11-29T02:47:14.743Z,2.92
2022-11-29T02:50:00.515Z,2.91
2022-11-29T02:52:36.922Z,2.88
2022-11-29T02:55:10.613Z,2.89
2022-11-29T02:57:44.480Z,2.90
2022-11-29T03:00:16.837Z,2.84
2022-11-29T03:02:56.037Z,2.84
2022-11-29T03:05:33.469Z,2.85
2022-11-29T03:08:11.235Z,2.85
2022-11-29T03:10:44.387Z,2.85
2022-11-29T03:13:21.146Z,2.87
2022-11-29T03:15:58.740Z,2.84
2022-11-29T03:18:35.507Z,2.91
2022-11-29T03:21:19.239Z,2.88
2022-11-29T03:23:49.578Z,2.90
2022-11-29T03:26:22.187Z,2.92
2022-11-29T03:28:56.159Z,2.89
2022-11-29T03:31:31.072Z,2.92
2022-11-29T03:34:07.119Z,2.86
2022-11-29T03:36:44.520Z,2.83
2022-11-29T03:39:18.464Z,2.84
2022-11-29T03:41:52.747Z,2.84
2022-11-29T03:44:26.215Z,2.80
2022-11-29T03:46:59.434Z,2.83
2022-11-29T03:49:33.253Z,2.86
2022-11-29T03:52:09.478Z,2.83
2022-11-29T03:54:49.430Z,2.86
2022-11-29T03:57:23.012Z,2.87
2022-11-29T04:00:02.618Z,2.96
2022-11-29T04:03:07.695Z,2.91
2022-11-29T04:06:05.002Z,2.89
2022-11-29T04:09:13.545Z,2.86
2022-11-29T04:12:05.298Z,2.87
2022-11-29T04:14:51.617Z,2.85
2022-11-29T04:17:52.493Z,2.88
2022-11-29T04:21:00.667Z,2.92
2022-11-29T04:23:49.680Z,2.86
2022-11-29T04:26:41.162Z,2.89
2022-11-29T04:29:36.634Z,2.88
2022-11-29T04:32:27.695Z,2.83
2022-11-29T04:35:08.051Z,2.91
2022-11-29T04:37:57.407Z,2.85
2022-11-29T04:40:48.403Z,2.89
2022-11-29T04:44:00.387Z,2.80
2022-11-29T04:46:41.533Z,2.79
2022-11-29T04:49:41.274Z,2.84
2022-11-29T04:52:44.024Z,2.79
2022-11-29T04:55:29.410Z,2.79
2022-11-29T04:58:05.152Z,2.86
2022-11-29T05:00:40.275Z,2.87
2022-11-29T05:03:18.052Z,2.84
2022-11-29T05:05:53.702Z,2.78
2022-11-29T05:08:34.147Z,2.75
2022-11-29T05:11:11.656Z,2.77
2022-11-29T05:13:46.828Z,2.74
2022-11-29T05:16:27.305Z,2.78
2022-11-29T05:19:09.663Z,2.73
2022-11-29T05:21:49.671Z,2.84
2022-11-29T05:24:31.486Z,2.82
2022-11-29T05:27:08.986Z,2.73
2022-11-29T05:29:42.961Z,2.75
2022-11-29T05:32:25.235Z,2.72
2022-11-29T05:35:18.869Z,2.71
2022-11-29T05:37:52.643Z,2.76
2022-11-29T05:40:44.071Z,2.74
2022-11-29T05:43:39.229Z,2.78
2022-11-29T05:46:13.702Z,2.80
2022-11-29T05:48:48.582Z,2.70
2022-11-29T05:51:22.895Z,2.75
2022-11-29T05:54:14.071Z,2.76
2022-11-29T05:56:48.359Z,2.80
2022-11-29T05:59:20.290Z,2.77
2022-11-29T06:01:56.816Z,2.79
2022-11-29T06:04:32.783Z,2.80
2022-11-29T06:07:10.802Z,2.78
2022-11-29T06:09:48.218Z,2.75
2022-11-29T06:12:21.388Z,2.78
2022-11-29T06:15:17.138Z,2.69
2022-11-29T06:17:57.824Z,2.72
2022-11-29T06:20:46.367Z,2.71
2022-11-29T06:23:42.337Z,2.73
2022-11-29T06:26:40.761Z,2.75
2022-11-29T06:29:25.145Z,2.68
2022-11-29T06:31:57.220Z,2.63
2022-11-29T06:34:32.325Z,2.67
2022-11-29T06:37:06.631Z,2.68
2022-11-29T06:39:34.902Z,2.69
2022-11-29T06:42:03.898Z,2.73
2022-11-29T06:44:32.021Z,2.71
2022-11-29T06:47:07.059Z,2.69
2022-11-29T06:49:40.101Z,2.63
2022-11-29T06:52:21.142Z,2.65
2022-11-29T06:55:04.914Z,2.66
2022-11-29T06:57:44.338Z,2.57
2022-11-29T07:00:17.502Z,2.60
2022-11-29T07:03:16.797Z,2.53
2022-11-29T07:05:46.458Z,2.56
2022-11-29T07:08:18.633Z,2.56
2022-11-29T07:10:49.650Z,2.55
2022-11-29T07:13:19.970Z,2.52
2022-11-29T07:15:57.460Z,2.52
2022-11-29T07:18:35.095Z,2.51
2022-11-29T07:21:17.511Z,2.52
2022-11-29T07:23:55.684Z,2.54
2022-11-29T07:26:31.165Z,2.56
2022-11-29T07:29:19.364Z,2.60
2022-11-29T07:32:01.512Z,2.58
2022-11-29T07:34:38.797Z,2.62
2022-11-29T07:37:16.530Z,2.63
2022-11-29T07:39:54.453Z,2.57
2022-11-29T07:42:30.323Z,2.65
2022-11-29T07:45:08.674Z,2.64
2022-11-29T07:47:36.418Z,2.75
2022-11-29T07:50:04.751Z,2.74
2022-11-29T07:52:32.527Z,2.77
2022-11-29T07:55:00.215Z,2.79
2022-11-29T07:57:27.805Z,2.83
2022-11-29T07:59:55.482Z,2.82
2022-11-29T08:02:33.691Z,2.82
2022-11-29T08:05:02.034Z,2.83
2022-11-29T08:07:29.777Z,2.89
2022-11-29T08:09:57.472Z,2.91
2022-11-29T08:12:25.111Z,2.96
2022-11-29T08:14:52.785Z,2.98
2022-11-29T08:17:20.422Z,3.01
2022-11-29T08:19:49.476Z,3.01
2022-11-29T08:22:17.113Z,3.04
2022-11-29T08:24:45.052Z,3.05
2022-11-29T08:27:12.824Z,3.12
2022-11-29T08:29:40.459Z,3.12
2022-11-29T08:32:08.942Z,3.20
2022-11-29T08:34:36.567Z,3.15
2022-11-29T08:37:05.619Z,3.15
2022-11-29T08:39:33.234Z,3.15
2022-11-29T08:42:00.873Z,3.22
2022-11-29T08:44:28.555Z,3.33
2022-11-29T08:47:14.005Z,3.33
2022-11-29T08:50:01.144Z,3.37
2022-11-29T08:52:47.968Z,3.36
2022-11-29T08:55:15.759Z,3.32
2022-11-29T08:57:43.606Z,3.36
2022-11-29T09:00:12.561Z,3.38
2022-11-29T09:02:40.305Z,3.39
2022-11-29T09:05:09.306Z,3.42
2022-11-29T09:07:38.771Z,3.47
2022-11-29T09:10:08.792Z,3.58
2022-11-29T09:12:37.014Z,3.52
2022-11-29T09:15:05.795Z,3.52
2022-11-29T09:17:33.445Z,3.55
2022-11-29T09:20:01.104Z,3.63
2022-11-29T09:22:28.760Z,3.56
2022-11-29T09:24:57.744Z,3.58
2022-11-29T09:27:25.374Z,3.54
2022-11-29T09:29:53.027Z,3.61
2022-11-29T09:32:20.668Z,3.66
2022-11-29T09:34:48.481Z,3.64
2022-11-29T09:37:16.328Z,3.60
2022-11-29T09:39:43.939Z,3.61
2022-11-29T09:42:37.728Z,3.58
2022-11-29T09:45:11.777Z,3.58
2022-11-29T09:47:58.446Z,3.69
2022-11-29T09:50:33.195Z,3.77
2022-11-29T09:53:23.877Z,3.75
2022-11-29T09:55:57.891Z,3.68
2022-11-29T09:58:30.835Z,3.85
2022-11-29T10:01:03.754Z,3.80
2022-11-29T10:03:36.148Z,3.73
2022-11-29T10:06:10.300Z,3.71
2022-11-29T10:08:41.836Z,3.71
2022-11-29T10:11:19.527Z,3.70
2022-11-29T10:13:53.114Z,3.68
2022-11-29T10:16:26.637Z,3.65
2022-11-29T10:19:02.395Z,3.75
2022-11-29T10:21:35.342Z,3.69
2022-11-29T10:24:06.279Z,3.76
2022-11-29T10:26:35.441Z,3.82
2022-11-29T10:29:04.966Z,3.77
2022-11-29T10:31:35.989Z,3.91
2022-11-29T10:34:12.819Z,3.79
2022-11-29T10:36:44.454Z,3.76
2022-11-29T10:39:17.567Z,3.77
2022-11-29T10:41:45.242Z,3.75
2022-11-29T10:44:16.006Z,3.77
2022-11-29T10:46:44.011Z,3.76
2022-11-29T10:49:15.992Z,3.75
2022-11-29T10:51:43.952Z,3.79
2022-11-29T10:54:26.922Z,3.83
2022-11-29T10:56:54.192Z,3.86
2022-11-29T10:59:26.902Z,3.90
2022-11-29T11:01:55.093Z,3.84
2022-11-29T11:04:30.161Z,3.81
2022-11-29T11:07:01.367Z,3.82
2022-11-29T11:09:36.619Z,3.83
2022-11-29T11:12:08.560Z,3.81
2022-11-29T11:14:39.261Z,3.81
2022-11-29T11:17:23.222Z,3.83
2022-11-29T11:19:57.670Z,3.81
2022-11-29T11:22:27.284Z,3.84
2022-11-29T11:25:01.270Z,3.82
2022-11-29T11:27:34.590Z,3.84
2022-11-29T11:30:08.535Z,3.84
2022-11-29T11:32:36.213Z,3.83
2022-11-29T11:35:03.926Z,3.91
2022-11-29T11:37:35.555Z,3.90
2022-11-29T11:40:20.800Z,3.86
2022-11-29T11:42:48.630Z,3.91
2022-11-29T11:45:34.213Z,3.99
2022-11-29T11:48:05.584Z,3.92
2022-11-29T11:50:35.930Z,3.91
2022-11-29T11:53:06.519Z,3.98
2022-11-29T11:55:36.758Z,4.04
2022-11-29T11:58:10.688Z,3.96
2022-11-29T12:03:40.722Z,3.91
2022-11-29T12:06:25.692Z,3.92
2022-11-29T12:09:00.274Z,3.93
2022-11-29T12:11:32.737Z,3.97
2022-11-29T12:14:02.991Z,4.00
2022-11-29T12:16:36.548Z,3.98
2022-11-29T12:19:13.117Z,3.97
2022-11-29T12:21:44.610Z,4.02
2022-11-29T12:24:22.123Z,4.04
2022-11-29T12:26:58.630Z,4.07
2022-11-29T12:29:32.024Z,4.07
2022-11-29T12:32:19.207Z,4.09
2022-11-29T12:35:08.104Z,4.06
2022-11-29T12:37:44.136Z,4.06
2022-11-29T12:40:23.299Z,4.11
2022-11-29T12:42:58.432Z,4.08
2022-11-29T12:45:36.423Z,4.09
2022-11-29T12:48:16.227Z,4.13
2022-11-29T12:50:55.074Z,4.21
2022-11-29T12:53:33.873Z,4.13
2022-11-29T12:56:13.735Z,4.08
2022-11-29T12:58:54.606Z,4.08
2022-11-29T13:01:30.993Z,4.10
2022-11-29T13:04:12.302Z,4.11
2022-11-29T13:06:46.470Z,4.16
2022-11-29T13:09:39.513Z,4.17
2022-11-29T13:12:14.615Z,4.13
2022-11-29T13:14:50.115Z,4.16
2022-11-29T13:17:28.770Z,4.10
2022-11-29T13:20:03.237Z,4.10
2022-11-29T13:22:40.247Z,4.08
2022-11-29T13:25:18.155Z,4.14
2022-11-29T13:27:58.301Z,4.23
2022-11-29T13:30:26.622Z,4.27
2022-11-29T13:33:01.588Z,4.23
2022-11-29T13:35:37.325Z,4.17
2022-11-29T13:38:11.437Z,4.13
2022-11-29T13:40:55.415Z,4.14
2022-11-29T13:43:30.609Z,4.19
2022-11-29T13:46:06.447Z,4.15
2022-11-29T13:48:46.659Z,4.16
2022-11-29T13:51:41.078Z,4.13
2022-11-29T13:54:27.650Z,4.13
2022-11-29T13:57:03.643Z,4.16
2022-11-29T13:59:33.644Z,4.12
2022-11-29T14:02:01.882Z,4.09
2022-11-29T14:04:33.709Z,4.13
2022-11-29T14:07:10.029Z,4.12
2022-11-29T14:09:45.488Z,4.16
2022-11-29T14:12:28.660Z,4.09
2022-11-29T14:14:59.522Z,4.08
2022-11-29T14:17:36.575Z,4.14
2022-11-29T14:20:52.979Z,4.13
2022-11-29T14:23:37.260Z,4.06
2022-11-29T14:26:32.018Z,4.00
2022-11-29T14:29:00.234Z,4.01
2022-11-29T14:31:50.365Z,3.95
2022-11-29T14:34:47.825Z,3.96
2022-11-29T14:37:31.759Z,3.96
2022-11-29T14:40:11.589Z,3.95
2022-11-29T14:42:47.229Z,3.98
2022-11-29T14:45:23.808Z,4.06
2022-11-29T14:47:51.626Z,4.06
2022-11-29T14:50:32.017Z,4.10
2022-11-29T14:53:00.248Z,4.05
2022-11-29T14:55:35.498Z,4.04
2022-11-29T14:58:17.239Z,3.99
2022-11-29T15:00:56.474Z,3.99
2022-11-29T15:03:32.465Z,3.99
2022-11-29T15:06:02.194Z,4.04
2022-11-29T15:08:35.811Z,4.06
2022-11-29T15:11:12.427Z,4.05
2022-11-29T15:13:49.843Z,4.04
2022-11-29T15:16:29.786Z,4.07
2022-11-29T15:19:17.351Z,4.06
2022-11-29T15:21:55.959Z,4.06
2022-11-29T15:24:28.254Z,4.05
2022-11-29T15:26:58.811Z,4.11
2022-11-29T15:29:27.770Z,4.04
2022-11-29T15:31:58.041Z,4.01
2022-11-29T15:34:32.299Z,4.03
2022-11-29T15:37:00.632Z,3.99
2022-11-29T15:39:31.324Z,4.02
2022-11-29T15:42:05.821Z,4.01
2022-11-29T15:44:33.809Z,4.01
2022-11-29T15:47:21.931Z,4.13
2022-11-29T15:49:49.872Z,4.09
2022-11-29T15:52:24.711Z,4.10
2022-11-29T15:54:56.231Z,4.02
2022-11-29T15:57:28.493Z,3.98
2022-11-29T15:59:59.012Z,3.99
2022-11-29T16:02:28.661Z,4.00
2022-11-29T16:04:59.564Z,4.06
2022-11-29T16:07:32.097Z,4.07
2022-11-29T16:10:04.523Z,4.02
2022-11-29T16:12:33.536Z,4.05
2022-11-29T16:15:02.292Z,4.00
2022-11-29T16:17:31.720Z,3.96
2022-11-29T16:20:23.295Z,3.98
2022-11-29T16:23:04.434Z,3.96
2022-11-29T16:25:37.633Z,3.95
2022-11-29T16:28:13.242Z,3.93
2022-11-29T16:30:43.133Z,3.93
2022-11-29T16:33:21.188Z,3.87
2022-11-29T16:35:49.120Z,3.96
2022-11-29T16:38:20.795Z,3.94
2022-11-29T16:41:02.460Z,3.91
2022-11-29T16:43:56.138Z,3.90
2022-11-29T16:46:30.299Z,3.88
2022-11-29T16:49:00.753Z,3.92
2022-11-29T16:51:37.300Z,3.87
2022-11-29T16:54:21.397Z,3.87
2022-11-29T16:56:49.542Z,3.86
2022-11-29T16:59:27.650Z,3.86
2022-11-29T17:01:56.739Z,3.85
2022-11-29T17:04:25.195Z,3.86
2022-11-29T17:06:53.836Z,3.84
2022-11-29T17:09:25.992Z,3.83
2022-11-29T17:11:54.179Z,3.84
2022-11-29T17:14:23.631Z,3.87
2022-11-29T17:16:52.033Z,3.84
2022-11-29T17:19:22.040Z,3.84
2022-11-29T17:21:49.703Z,3.85
2022-11-29T17:24:19.345Z,3.85
2022-11-29T17:26:47.327Z,3.91
2022-11-29T17:29:16.155Z,3.87
2022-11-29T17:31:46.165Z,3.86
2022-11-29T17:34:14.193Z,3.87
2022-11-29T17:36:45.022Z,3.86
2022-11-29T17:39:13.550Z,3.90
2022-11-29T17:41:41.165Z,3.87
2022-11-29T17:44:09.457Z,3.87
2022-11-29T17:46:38.000Z,3.87
2022-11-29T17:49:08.928Z,3.92
2022-11-29T17:51:55.139Z,3.91
2022-11-29T17:54:23.633Z,3.95
2022-11-29T17:56:51.802Z,3.94
2022-11-29T17:59:20.300Z,3.88
2022-11-29T18:01:48.105Z,3.93
2022-11-29T18:04:17.353Z,3.93
2022-11-29T18:06:49.338Z,3.90
2022-11-29T18:09:17.565Z,3.86
2022-11-29T18:11:48.997Z,3.86
2022-11-29T18:14:19.733Z,3.86
2022-11-29T18:16:47.498Z,3.91
2022-11-29T18:19:18.800Z,4.04
2022-11-29T18:21:46.857Z,3.98
2022-11-29T18:24:15.056Z,3.94
2022-11-29T18:26:43.288Z,3.90
2022-11-29T18:29:11.693Z,3.88
2022-11-29T18:31:41.812Z,3.94
2022-11-29T18:34:11.334Z,3.93
2022-11-29T18:36:42.824Z,3.96
2022-11-29T18:39:13.811Z,3.98
2022-11-29T18:41:43.201Z,3.95
2022-11-29T18:44:12.694Z,3.95
2022-11-29T18:46:42.895Z,4.02
2022-11-29T18:49:12.686Z,4.03
2022-11-29T18:51:44.294Z,3.97
2022-11-29T18:54:12.489Z,3.91
2022-11-29T18:56:40.420Z,3.88
2022-11-29T18:59:10.230Z,3.90
2022-11-29T19:01:41.064Z,3.92
2022-11-29T19:04:10.639Z,3.90
2022-11-29T19:06:40.049Z,3.85
2022-11-29T19:09:13.121Z,3.85
2022-11-29T19:11:41.030Z,3.91
2022-11-29T19:14:11.310Z,3.91
2022-11-29T19:16:40.381Z,3.90
2022-11-29T19:19:08.551Z,3.86
2022-11-29T19:21:36.828Z,3.84
2022-11-29T19:24:07.543Z,3.88
2022-11-29T19:26:36.623Z,3.87
2022-11-29T19:29:04.305Z,3.93
2022-11-29T19:31:32.319Z,3.92
2022-11-29T19:33:59.973Z,3.88
2022-11-29T19:36:29.310Z,3.92
2022-11-29T19:38:57.659Z,3.92
2022-11-29T19:41:27.219Z,3.90
2022-11-29T19:43:58.017Z,3.88
2022-11-29T19:46:27.658Z,3.88
2022-11-29T19:48:56.743Z,3.86
2022-11-29T19:51:25.295Z,3.90
2022-11-29T19:53:54.095Z,3.88
2022-11-29T19:56:22.411Z,3.85
2022-11-29T19:58:50.829Z,3.87
2022-11-29T20:01:22.466Z,3.85
2022-11-29T20:03:50.176Z,3.90
2022-11-29T20:06:18.383Z,3.88
2022-11-29T20:08:46.420Z,3.92
2022-11-29T20:11:16.395Z,3.90
2022-11-29T20:13:46.642Z,3.87
2022-11-29T20:16:16.958Z,3.90
2022-11-29T20:18:51.198Z,3.90
2022-11-29T20:21:20.968Z,3.90
2022-11-29T20:23:49.062Z,3.84
2022-11-29T20:26:19.979Z,3.83
2022-11-29T20:28:48.424Z,3.82
2022-11-29T20:31:18.156Z,3.82
2022-11-29T20:33:48.090Z,3.83
2022-11-29T20:36:33.829Z,3.80
2022-11-29T20:39:08.002Z,3.81
2022-11-29T20:41:42.583Z,3.82
2022-11-29T20:44:15.282Z,3.76
2022-11-29T20:46:43.275Z,3.73
2022-11-29T20:49:13.975Z,3.72
2022-11-29T20:51:48.400Z,3.77
2022-11-29T20:54:17.214Z,3.70
2022-11-29T20:56:44.872Z,3.70
2022-11-29T20:59:12.542Z,3.73
2022-11-29T21:01:40.380Z,3.73
2022-11-29T21:04:08.077Z,3.73
2022-11-29T21:06:39.569Z,3.79
2022-11-29T21:09:08.687Z,3.81
2022-11-29T21:11:36.839Z,3.79
2022-11-29T21:14:05.800Z,3.76
2022-11-29T21:16:33.925Z,3.68
2022-11-29T21:19:03.544Z,3.63
2022-11-29T21:21:37.235Z,3.64
2022-11-29T21:24:22.315Z,3.72
2022-11-29T21:26:52.497Z,3.73
2022-11-29T21:29:21.891Z,3.69
2022-11-29T21:31:51.626Z,3.63
2022-11-29T21:34:19.510Z,3.65
2022-11-29T21:36:51.264Z,3.68
2022-11-29T21:39:20.278Z,3.66
2022-11-29T21:41:48.024Z,3.67
2022-11-29T21:44:15.981Z,3.69
2022-11-29T21:46:43.676Z,3.64
2022-11-29T21:49:11.324Z,3.64
2022-11-29T21:51:38.983Z,3.66
2022-11-29T21:54:06.721Z,3.67
2022-11-29T21:56:35.772Z,3.63
2022-11-29T21:59:03.399Z,3.60
2022-11-29T22:01:31.096Z,3.64
2022-11-29T22:03:58.812Z,3.66
2022-11-29T22:06:29.139Z,3.69
2022-11-29T22:08:56.924Z,3.64
2022-11-29T22:11:31.774Z,3.60
2022-11-29T22:14:18.227Z,3.64
2022-11-29T22:16:48.288Z,3.67
2022-11-29T22:19:17.557Z,3.66
2022-11-29T22:21:47.231Z,3.65
2022-11-29T22:24:17.502Z,3.64
2022-11-29T22:26:45.714Z,3.64
2022-11-29T22:29:15.340Z,3.78
2022-11-29T22:31:44.422Z,3.73
2022-11-29T22:34:12.564Z,3.69
2022-11-29T22:36:41.063Z,3.66
2022-11-29T22:39:09.608Z,3.63
2022-11-29T22:41:39.341Z,3.61
2022-11-29T22:44:07.259Z,3.63
2022-11-29T22:46:36.846Z,3.61
2022-11-29T22:49:05.095Z,3.63
2022-11-29T22:51:34.663Z,3.63
2022-11-29T22:54:04.550Z,3.58
2022-11-29T22:56:33.993Z,3.55
2022-11-29T22:59:01.676Z,3.55
2022-11-29T23:01:30.832Z,3.55
2022-11-29T23:04:03.801Z,3.66
2022-11-29T23:06:33.006Z,3.65
2022-11-29T23:09:07.772Z,3.59
2022-11-29T23:11:35.465Z,3.57
2022-11-29T23:14:03.127Z,3.57
2022-11-29T23:16:32.676Z,3.66
2022-11-29T23:19:02.150Z,3.58
2022-11-29T23:21:31.983Z,3.55
2022-11-29T23:24:01.470Z,3.52
2022-11-29T23:26:31.739Z,3.56
2022-11-29T23:28:59.590Z,3.57
2022-11-29T23:31:27.250Z,3.59
2022-11-29T23:33:55.165Z,3.59
2022-11-29T23:36:24.170Z,3.61
2022-11-29T23:38:52.420Z,3.58
2022-11-29T23:41:20.090Z,3.57
2022-11-29T23:43:47.705Z,3.55
2022-11-29T23:46:17.703Z,3.59
2022-11-29T23:48:46.197Z,3.54
2022-11-29T23:51:14.503Z,3.56
2022-11-29T23:53:43.862Z,3.61
2022-11-29T23:56:14.027Z,3.59
2022-11-29T23:58:42.211Z,3.55
